Time;durP1;ratioP1;P1;durP2;ratioP2;P2;SDS_P1;SDS_P2;PMS_P1;PMS_P2;Temp;Humidity;BMP_temperature;BMP_pressure;BME280_temperature;BME280_humidity;BME280_pressure;Samples;Min_cycle;Max_cycle;Signal;HPM_P1;HPM_P2
2022/06/03 00:06:00;;;;;;;;;5.00;3.00;;;;;18.65;74.78;101141.09;5931894;23;44822;-89
2022/06/03 00:09:03;;;;;;;;;6.20;4.00;;;;;18.64;75.22;101125.94;5924506;24;44758;-87
2022/06/03 00:12:19;;;;;;;;;3.00;3.00;;;;;18.64;73.81;101123.25;5924813;23;45539;-87
2022/06/03 00:15:24;;;;;;;;;4.20;3.20;;;;;18.64;69.18;101124.09;5902463;24;45162;-87
2022/06/03 00:18:41;;;;;;;;;4.00;4.00;;;;;18.67;76.04;101118.44;5926900;24;45199;-87
2022/06/03 00:21:40;;;;;;;;;4.00;4.00;;;;;18.67;66.50;101115.75;5881487;24;44812;-86
2022/06/03 00:24:30;;;;;;;;;3.80;3.80;;;;;18.68;65.56;101121.97;6016413;23;45318;-87
2022/06/03 00:27:24;;;;;;;;;4.80;4.80;;;;;18.68;75.44;101117.47;6090087;23;45205;-87
2022/06/03 00:37:32;;;;;;;;;2.60;2.60;;;;;18.67;67.71;101114.91;6135472;23;45156;-88
2022/06/03 00:40:38;;;;;;;;;2.60;2.60;;;;;18.68;76.15;101112.09;6149457;23;45501;-88
2022/06/03 00:43:41;;;;;;;;;5.60;4.20;;;;;18.69;71.29;101104.88;6153451;23;44820;-87
2022/06/03 00:46:43;;;;;;;;;3.40;3.40;;;;;18.71;75.21;101105.56;6129785;23;44914;-87
2022/06/03 00:49:49;;;;;;;;;4.20;4.20;;;;;18.67;74.79;101115.75;6130860;23;46141;-84
2022/06/03 00:52:42;;;;;;;;;4.00;4.00;;;;;18.65;76.23;101114.19;6098701;23;45431;-88
2022/06/03 00:55:28;;;;;;;;;3.20;3.20;;;;;18.59;75.82;101112.09;6097050;23;44755;-87
2022/06/03 00:58:38;;;;;;;;;3.80;3.80;;;;;18.55;77.69;101113.38;6096564;23;44822;-87
2022/06/03 01:01:03;;;;;;;;;4.60;3.80;;;;;18.55;79.04;101116.91;5984943;23;45426;-88
2022/06/03 01:03:43;;;;;;;;;7.00;5.00;;;;;18.52;77.48;101119.91;5988386;23;44826;-88
2022/06/03 01:06:38;;;;;;;;;3.60;3.60;;;;;18.59;79.25;101117.47;6010346;23;45200;-87
2022/06/03 01:09:22;;;;;;;;;4.00;4.00;;;;;18.59;78.33;101112.94;6014024;23;45518;-87
2022/06/03 01:12:17;;;;;;;;;4.80;4.80;;;;;18.58;80.64;101105.84;6015493;23;45136;-85
2022/06/03 01:15:09;;;;;;;;;2.60;2.60;;;;;18.61;77.10;101105.53;6038780;23;45299;-88
2022/06/03 01:18:01;;;;;;;;;5.60;4.00;;;;;18.63;72.33;101103.56;5993701;23;44742;-87
2022/06/03 01:20:44;;;;;;;;;5.40;5.40;;;;;18.63;78.17;101106.28;6020086;23;44687;-89
2022/06/03 01:23:28;;;;;;;;;3.40;3.40;;;;;18.62;77.80;101117.19;6015940;23;45273;-87
2022/06/03 01:25:56;;;;;;;;;4.80;4.80;;;;;18.63;74.28;101124.25;6018954;23;44686;-89
2022/06/03 01:28:41;;;;;;;;;5.20;4.00;;;;;18.64;78.43;101113.34;6081738;23;44692;-87
2022/06/03 01:31:24;;;;;;;;;3.40;3.00;;;;;18.61;72.04;101107.41;6078474;23;45213;-85
2022/06/03 01:34:10;;;;;;;;;3.00;3.00;;;;;18.59;69.31;101106.69;6082012;23;46708;-88
2022/06/03 01:37:02;;;;;;;;;3.40;2.20;;;;;18.62;77.46;101104.56;6106710;23;44637;-88
2022/06/03 01:39:55;;;;;;;;;3.60;3.60;;;;;18.58;76.83;101115.78;6071987;23;45235;-87
2022/06/03 01:42:57;;;;;;;;;3.00;3.00;;;;;18.53;79.20;101108.13;6095859;23;44745;-87
2022/06/03 01:45:55;;;;;;;;;3.00;3.00;;;;;18.53;73.48;101101.91;6098035;23;45287;-88
2022/06/03 01:48:49;;;;;;;;;4.00;4.00;;;;;18.50;79.23;101095.81;6119376;23;44949;-88
2022/06/03 01:51:36;;;;;;;;;3.80;3.80;;;;;18.43;76.03;101094.72;6124318;23;45503;-87
2022/06/03 01:54:26;;;;;;;;;5.00;5.00;;;;;18.44;80.37;101085.63;6157467;22;44795;-87
2022/06/03 01:57:29;;;;;;;;;5.00;5.00;;;;;18.41;75.75;101087.75;6309967;22;45344;-89
2022/06/03 02:00:25;;;;;;;;;4.60;3.00;;;;;18.39;75.48;101081.69;6280381;22;45139;-88
2022/06/03 02:03:14;;;;;;;;;3.80;3.80;;;;;18.37;78.23;101079.16;6280244;22;45300;-87
2022/06/03 02:06:20;;;;;;;;;4.00;4.00;;;;;18.33;79.14;101071.50;6293286;22;44747;-87
2022/06/03 02:09:23;;;;;;;;;6.60;5.20;;;;;18.34;79.74;101071.38;6171057;23;46153;-86
2022/06/03 02:11:58;;;;;;;;;1.00;1.00;;;;;18.32;77.71;101067.94;6172939;23;44815;-88
2022/06/03 02:15:06;;;;;;;;;2.00;2.00;;;;;18.28;81.35;101063.88;6167638;23;44771;-86
2022/06/03 02:17:42;;;;;;;;;4.80;4.00;;;;;18.26;82.74;101062.31;6160955;23;44881;-86
2022/06/03 02:20:55;;;;;;;;;3.00;3.00;;;;;18.21;83.73;101057.38;6163708;23;45032;-85
2022/06/03 02:24:04;;;;;;;;;4.40;3.60;;;;;18.17;83.93;101048.72;6093417;23;45290;-84
2022/06/03 02:26:48;;;;;;;;;1.80;1.80;;;;;18.13;85.22;101039.28;6093360;23;44843;-86
2022/06/03 02:32:39;;;;;;;;;4.00;4.00;;;;;18.06;85.26;101031.91;6099956;23;44932;-87
2022/06/03 02:35:41;;;;;;;;;4.40;4.00;;;;;17.98;83.25;101033.47;6102839;23;44788;-87
2022/06/03 02:38:31;;;;;;;;;4.00;4.00;;;;;17.95;78.52;101036.47;6104040;23;44720;-85
2022/06/03 02:41:44;;;;;;;;;4.40;4.40;;;;;17.91;79.81;101034.22;6222345;22;44830;-85
2022/06/03 02:44:37;;;;;;;;;4.00;4.00;;;;;17.89;88.04;101020.03;6104116;23;46604;-87
2022/06/03 02:47:08;;;;;;;;;5.80;5.80;;;;;17.86;87.94;101021.19;6124284;23;44749;-86
2022/06/03 02:50:00;;;;;;;;;4.20;4.20;;;;;17.85;81.52;101022.19;6124053;23;44783;-86
2022/06/03 02:52:42;;;;;;;;;6.20;4.00;;;;;17.84;88.59;101017.81;6128598;23;44730;-87
2022/06/03 02:55:34;;;;;;;;;2.60;1.60;;;;;17.82;88.22;101024.31;6126863;23;46531;-87
2022/06/03 02:58:36;;;;;;;;;4.40;4.40;;;;;17.79;89.01;101020.06;6125622;23;44731;-86
2022/06/03 03:01:39;;;;;;;;;6.00;4.20;;;;;17.78;89.63;101010.28;6152180;23;45479;-85
2022/06/03 03:04:33;;;;;;;;;6.00;5.00;;;;;17.76;89.15;101006.91;6152409;23;45325;-85
2022/06/03 03:07:26;;;;;;;;;5.00;2.40;;;;;17.73;86.52;101018.78;6184943;23;45337;-85
2022/06/03 03:10:13;;;;;;;;;3.80;3.00;;;;;17.71;87.38;101010.00;6194216;23;45450;-84
2022/06/03 03:13:00;;;;;;;;;5.60;4.20;;;;;17.70;90.25;101008.31;6159281;23;45285;-85
2022/06/03 03:15:31;;;;;;;;;2.80;2.80;;;;;17.69;91.02;101008.44;6182809;23;44766;-86
2022/06/03 03:18:27;;;;;;;;;3.20;3.00;;;;;17.62;90.49;101013.53;6186413;23;46649;-85
2022/06/03 03:21:20;;;;;;;;;4.40;4.40;;;;;17.62;92.68;101013.53;6253744;22;45438;-85
2022/06/03 03:23:47;;;;;;;;;8.40;6.60;;;;;17.56;91.21;101021.31;6277544;22;44682;-86
2022/06/03 03:26:15;;;;;;;;;7.60;6.20;;;;;17.54;92.39;101012.53;6273670;22;45324;-86
2022/06/03 03:29:04;;;;;;;;;6.20;6.20;;;;;17.53;92.28;101016.22;6274977;22;45241;-86
2022/06/03 03:31:41;;;;;;;;;4.00;4.00;;;;;17.51;91.23;101020.91;6273870;22;45403;-85
2022/06/03 03:34:32;;;;;;;;;5.40;4.20;;;;;17.52;95.55;101026.13;6306461;22;45341;-85
2022/06/03 03:37:16;;;;;;;;;6.00;5.00;;;;;17.49;95.12;101018.31;6310709;22;45282;-86
2022/06/03 03:40:16;;;;;;;;;4.00;4.00;;;;;17.50;93.89;101021.84;6312543;22;47091;-86
2022/06/03 03:43:01;;;;;;;;;6.00;5.80;;;;;17.45;94.72;101017.78;6246327;22;44782;-87
2022/06/03 03:46:05;;;;;;;;;7.60;4.80;;;;;17.45;90.64;101016.91;6284967;22;44799;-86
2022/06/03 03:49:08;;;;;;;;;4.60;4.60;;;;;17.44;96.79;101017.91;6310830;22;44831;-86
2022/06/03 03:52:11;;;;;;;;;4.80;4.80;;;;;17.43;97.03;101011.69;6314757;22;45326;-85
2022/06/03 03:55:02;;;;;;;;;5.20;3.20;;;;;17.38;97.81;101011.25;6315360;22;44896;-87
2022/06/03 03:57:27;;;;;;;;;4.00;4.00;;;;;17.35;94.94;101006.16;6318423;22;44850;-86
2022/06/03 04:00:04;;;;;;;;;4.50;4.50;;;;;17.35;90.70;101013.38;6319051;22;45230;-87
2022/06/03 04:02:57;;;;;;;;;3.80;3.80;;;;;17.37;97.11;101011.41;6315830;22;45104;-86
2022/06/03 04:06:18;;;;;;;;;6.60;6.20;;;;;17.42;96.08;101009.16;6288280;22;45353;-88
2022/06/03 04:09:13;;;;;;;;;7.20;5.20;;;;;17.42;95.34;101006.47;6312047;22;45501;-88
2022/06/03 04:11:48;;;;;;;;;4.25;4.25;;;;;17.45;92.42;101007.03;6281414;22;44816;-87
2022/06/03 04:14:38;;;;;;;;;5.00;4.00;;;;;17.46;96.74;100999.81;6281159;22;45381;-87
2022/06/03 04:17:43;;;;;;;;;6.80;4.60;;;;;17.53;97.85;101009.00;6309285;22;44862;-87
2022/06/03 04:20:24;;;;;;;;;5.80;5.80;;;;;17.52;98.42;101009.16;6309605;22;45175;-89
2022/06/03 04:23:15;;;;;;;;;2.80;2.80;;;;;17.63;94.83;101009.84;6282843;22;45448;-88
2022/06/03 04:25:43;;;;;;;;;4.20;4.20;;;;;17.81;92.59;101009.19;6283087;22;45262;-87
2022/06/03 04:28:16;;;;;;;;;7.60;6.60;;;;;17.96;91.18;101003.22;6312474;22;45265;-88
2022/06/03 04:31:06;;;;;;;;;7.40;6.60;;;;;18.15;94.63;101010.38;6315070;22;45238;-87
2022/06/03 04:33:53;;;;;;;;;5.80;4.40;;;;;18.31;94.86;101009.78;6311258;22;45308;-85
2022/06/03 04:36:37;;;;;;;;;7.60;6.40;;;;;18.39;93.62;101001.84;6308475;22;46078;-86
2022/06/03 04:39:51;;;;;;;;;4.80;3.40;;;;;18.46;93.82;101004.78;6284217;22;45326;-88
2022/06/03 04:42:35;;;;;;;;;4.60;4.60;;;;;18.47;93.96;101006.50;6316205;22;44742;-87
2022/06/03 04:45:31;;;;;;;;;5.00;5.00;;;;;18.45;93.54;101019.22;6285627;22;44830;-86
2022/06/03 04:48:39;;;;;;;;;5.00;5.00;;;;;18.41;94.25;101018.66;6314423;22;45275;-87
2022/06/03 04:51:56;;;;;;;;;6.20;6.20;;;;;18.46;93.96;101021.75;6288020;22;44689;-89
2022/06/03 04:54:59;;;;;;;;;6.20;6.20;;;;;18.41;92.44;101009.75;6315422;22;45112;-86
2022/06/03 04:58:02;;;;;;;;;6.25;6.25;;;;;18.44;95.23;101021.06;6314424;22;45322;-86
2022/06/03 05:00:46;;;;;;;;;5.00;4.00;;;;;18.46;94.11;101026.28;6318694;22;45272;-85
2022/06/03 05:03:36;;;;;;;;;3.80;3.20;;;;;18.44;95.73;101018.38;6313623;22;44836;-85
2022/06/03 05:06:32;;;;;;;;;6.20;5.80;;;;;18.44;95.55;101018.38;6309963;22;45152;-85
2022/06/03 05:09:19;;;;;;;;;8.80;8.80;;;;;18.38;95.33;101015.44;6316785;22;45331;-85
2022/06/03 05:12:16;;;;;;;;;7.60;6.80;;;;;18.32;96.30;101013.31;6324855;22;45234;-84
2022/06/03 05:15:12;;;;;;;;;4.20;4.00;;;;;18.31;96.14;101009.78;6320961;22;44716;-85
2022/06/03 05:17:44;;;;;;;;;6.40;6.40;;;;;18.34;95.88;101004.13;6298160;22;44689;-84
2022/06/03 05:20:28;;;;;;;;;6.50;5.75;;;;;18.43;97.29;101013.16;6294336;22;44935;-83
2022/06/03 05:23:06;;;;;;;;;5.60;5.60;;;;;18.44;92.66;101018.38;6295090;22;45888;-84
2022/06/03 05:25:50;;;;;;;;;8.00;6.60;;;;;18.38;93.65;101020.81;6318129;22;44736;-84
2022/06/03 05:28:18;;;;;;;;;6.60;5.00;;;;;18.32;95.44;101024.91;6291185;22;44821;-83
2022/06/03 05:31:11;;;;;;;;;7.20;7.20;;;;;18.30;97.39;101020.69;6312729;22;44751;-84
2022/06/03 05:34:08;;;;;;;;;9.00;6.80;;;;;18.30;98.06;101016.16;6310185;22;45135;-84
2022/06/03 05:36:36;;;;;;;;;6.00;6.00;;;;;18.28;98.53;101017.31;6308661;22;45301;-83
2022/06/03 05:39:39;;;;;;;;;4.00;2.60;;;;;18.36;96.26;101012.03;6310221;22;45087;-84
2022/06/03 05:42:29;;;;;;;;;6.00;6.00;;;;;18.41;98.00;101015.97;6315944;22;45153;-88
2022/06/03 05:45:42;;;;;;;;;8.00;6.40;;;;;18.55;97.69;101003.03;6326157;22;45587;-83
2022/06/03 05:48:18;;;;;;;;;5.40;5.40;;;;;18.70;93.30;101001.59;6183002;23;45504;-83
2022/06/03 05:51:10;;;;;;;;;6.60;6.60;;;;;18.77;97.49;100997.31;6185030;23;45291;-83
2022/06/03 05:53:51;;;;;;;;;7.25;5.00;;;;;18.94;94.30;100995.66;6185819;23;44852;-84
2022/06/03 05:56:46;;;;;;;;;5.00;5.00;;;;;19.14;96.23;100991.84;6167881;23;45149;-84
2022/06/03 05:59:42;;;;;;;;;6.80;4.20;;;;;19.41;96.02;100993.63;6186276;23;45396;-84
2022/06/03 06:02:17;;;;;;;;;9.20;6.80;;;;;19.52;94.63;100995.25;6164845;23;44813;-84
2022/06/03 06:04:51;;;;;;;;;3.00;3.00;;;;;19.66;95.02;100997.44;6166509;23;44851;-83
2022/06/03 06:07:41;;;;;;;;;10.00;6.80;;;;;19.71;92.83;100995.13;6187530;23;45181;-84
2022/06/03 06:10:16;;;;;;;;;9.00;6.80;;;;;19.56;91.98;100996.63;6185183;23;44678;-84
2022/06/03 06:12:47;;;;;;;;;6.40;6.40;;;;;19.42;95.33;101000.72;6159989;23;45149;-82
2022/06/03 06:15:46;;;;;;;;;3.00;3.00;;;;;19.39;96.73;101002.84;6190970;23;45332;-85
2022/06/03 06:18:15;;;;;;;;;5.40;3.80;;;;;19.42;96.92;101003.41;6190791;23;45024;-88
2022/06/03 06:20:47;;;;;;;;;8.80;8.00;;;;;19.41;97.86;100992.78;6189271;23;44774;-86
2022/06/03 06:23:28;;;;;;;;;7.20;7.20;;;;;19.50;94.36;100998.09;6188922;23;44659;-85
2022/06/03 06:26:33;;;;;;;;;8.80;7.20;;;;;19.52;95.61;101006.03;6314101;22;44683;-84
2022/06/03 06:29:19;;;;;;;;;8.20;6.40;;;;;19.44;95.60;101004.13;6287516;22;45366;-83
2022/06/03 06:32:22;;;;;;;;;9.00;9.00;;;;;19.62;96.61;100987.97;6306652;22;45246;-84
2022/06/03 06:35:25;;;;;;;;;9.00;7.60;;;;;19.74;96.37;100992.13;6306429;22;45283;-85
2022/06/03 06:38:27;;;;;;;;;7.75;7.75;;;;;19.86;96.06;101002.66;6282049;22;45319;-86
2022/06/03 06:41:18;;;;;;;;;9.20;9.00;;;;;19.84;96.28;100993.88;6282182;22;45306;-87
2022/06/03 06:44:13;;;;;;;;;7.00;7.00;;;;;19.89;97.13;100995.09;6308425;22;45356;-86
2022/06/03 06:47:03;;;;;;;;;11.20;8.20;;;;;19.84;97.63;100993.88;6308830;22;45398;-86
2022/06/03 06:49:46;;;;;;;;;7.50;5.25;;;;;19.87;97.98;100997.13;6310692;22;45245;-85
2022/06/03 06:52:28;;;;;;;;;7.40;7.40;;;;;19.86;98.08;100991.84;6313600;22;44932;-85
2022/06/03 06:55:22;;;;;;;;;8.60;6.80;;;;;19.94;98.46;100990.06;6316443;22;45254;-84
2022/06/03 06:57:52;;;;;;;;;12.00;10.20;;;;;20.14;97.45;100992.56;6309502;22;44729;-84
2022/06/03 07:00:25;;;;;;;;;10.00;7.25;;;;;20.20;97.83;100991.94;6307656;22;45246;-84
2022/06/03 07:03:00;;;;;;;;;9.60;8.60;;;;;20.23;95.24;100995.16;6310904;22;45350;-85
2022/06/03 07:05:53;;;;;;;;;9.60;8.20;;;;;20.25;96.77;100990.44;6288565;22;45330;-88
2022/06/03 07:08:23;;;;;;;;;8.80;8.80;;;;;20.46;96.45;100990.06;6312386;22;44865;-84
2022/06/03 07:11:00;;;;;;;;;7.20;7.20;;;;;20.53;95.63;100991.13;6280870;22;44899;-83
2022/06/03 07:13:51;;;;;;;;;10.20;7.60;;;;;20.57;95.67;100985.44;6309939;22;45177;-83
2022/06/03 07:19:48;;;;;;;;;11.80;9.20;;;;;20.56;96.29;100975.66;6307036;22;44670;-83
2022/06/03 07:22:22;;;;;;;;;9.20;7.40;;;;;20.73;96.39;100982.78;6316218;22;44769;-82
2022/06/03 07:25:11;;;;;;;;;13.20;8.80;;;;;20.82;95.57;100987.22;6311593;22;45197;-84
2022/06/03 07:27:42;;;;;;;;;8.40;6.60;;;;;20.88;93.35;100983.84;6312786;22;45180;-84
2022/06/03 07:30:17;;;;;;;;;13.60;10.40;;;;;20.95;95.30;100982.22;6280103;22;44653;-83
2022/06/03 07:32:49;;;;;;;;;6.75;6.75;;;;;21.12;95.69;100990.34;6306822;22;45592;-85
2022/06/03 07:35:22;;;;;;;;;7.40;7.40;;;;;21.39;96.35;100991.97;6307369;22;45329;-83
2022/06/03 07:38:59;;;;;;;;;13.80;10.40;;;;;21.58;94.78;100993.50;6305345;22;44773;-83
2022/06/03 07:41:43;;;;;;;;;12.00;8.20;;;;;21.89;95.07;100994.50;6181203;23;44698;-83
2022/06/03 07:44:29;;;;;;;;;7.60;7.60;;;;;22.12;93.55;100994.69;6180939;23;44786;-84
2022/06/03 07:47:02;;;;;;;;;4.40;4.40;;;;;22.28;93.21;100999.22;6182097;23;45178;-83
2022/06/03 07:49:31;;;;;;;;;7.80;7.80;;;;;22.44;92.27;100995.66;6187872;23;44802;-84
2022/06/03 07:52:29;;;;;;;;;6.20;6.00;;;;;22.41;91.88;100993.28;6161877;23;45487;-86
2022/06/03 07:55:43;;;;;;;;;12.20;8.60;;;;;22.23;92.67;100996.19;6099123;23;45221;-86
2022/06/03 07:58:18;;;;;;;;;6.20;5.60;;;;;22.32;94.16;101004.09;6042492;23;44981;-85
2022/06/03 08:00:45;;;;;;;;;8.40;6.40;;;;;22.51;95.13;100997.47;6043572;23;44721;-85
2022/06/03 08:03:27;;;;;;;;;9.80;9.40;;;;;22.52;93.93;100998.31;6020488;23;44656;-85
2022/06/03 08:06:14;;;;;;;;;9.60;8.80;;;;;22.36;94.21;100991.09;6043014;23;45556;-85
2022/06/03 08:12:07;;;;;;;;;10.20;8.80;;;;;22.46;95.65;100993.59;6079638;23;44680;-85
2022/06/03 08:14:56;;;;;;;;;9.20;9.20;;;;;22.43;95.38;100988.50;6103490;23;44789;-85
2022/06/03 08:17:28;;;;;;;;;8.40;6.00;;;;;22.54;94.99;100989.00;6099914;23;44811;-84
2022/06/03 08:19:56;;;;;;;;;7.00;7.00;;;;;22.84;95.00;100990.06;6098944;23;45265;-84
2022/06/03 08:22:31;;;;;;;;;11.40;10.40;;;;;22.96;93.19;100985.09;6096517;23;45389;-85
2022/06/03 08:25:00;;;;;;;;;9.20;9.20;;;;;22.95;94.00;100990.72;6098649;23;44818;-86
2022/06/03 08:27:30;;;;;;;;;10.20;9.40;;;;;23.09;92.57;100989.97;6098962;23;44723;-86
2022/06/03 08:30:04;;;;;;;;;9.20;7.00;;;;;22.91;92.96;100984.78;6099458;23;47191;-86
2022/06/03 08:32:44;;;;;;;;;12.20;9.20;;;;;22.86;95.47;100991.75;6164474;23;45556;-86
2022/06/03 08:35:14;;;;;;;;;9.20;8.00;;;;;23.08;92.22;100986.41;6263798;22;45127;-86
2022/06/03 08:37:52;;;;;;;;;13.40;10.60;;;;;23.17;94.87;100984.50;6288129;22;44829;-84
2022/06/03 08:40:54;;;;;;;;;11.40;10.60;;;;;23.42;93.92;100979.75;6314510;22;45236;-85
2022/06/03 08:43:33;;;;;;;;;13.20;9.60;;;;;23.59;92.39;100972.31;6312642;22;44792;-84
2022/06/03 08:46:52;;;;;;;;;18.40;13.20;;;;;23.54;92.17;100972.88;6310335;22;44748;-84
2022/06/03 08:49:20;;;;;;;;;11.60;10.20;;;;;23.73;92.35;100968.84;6121932;23;45515;-84
2022/06/03 08:52:03;;;;;;;;;9.00;7.20;;;;;23.79;92.59;100962.69;6122705;23;45998;-84
2022/06/03 08:55:13;;;;;;;;;13.40;13.40;;;;;23.95;92.39;100958.16;6122114;23;45277;-83
2022/06/03 08:57:47;;;;;;;;;13.40;12.20;;;;;24.04;92.20;100955.16;6122539;23;44893;-83
2022/06/03 09:00:18;;;;;;;;;11.60;10.20;;;;;23.92;92.37;100959.34;6122646;23;44861;-83
2022/06/03 09:02:52;;;;;;;;;16.20;13.80;;;;;23.84;91.57;100959.44;6123442;23;45233;-84
2022/06/03 09:05:31;;;;;;;;;16.00;15.00;;;;;23.91;91.58;100957.66;6125817;23;44671;-82
2022/06/03 09:08:18;;;;;;;;;10.40;10.40;;;;;23.76;91.95;100960.34;6132575;23;44759;-83
2022/06/03 09:11:01;;;;;;;;;12.20;11.60;;;;;23.74;93.11;100956.97;6142234;23;44820;-82
2022/06/03 09:13:42;;;;;;;;;10.40;7.00;;;;;23.91;92.97;100956.81;6142745;23;45482;-82
2022/06/03 09:16:11;;;;;;;;;10.40;10.40;;;;;24.08;93.32;100961.06;6108337;23;44832;-85
2022/06/03 09:18:48;;;;;;;;;11.80;11.80;;;;;24.19;89.50;100963.31;6125417;23;45485;-83
2022/06/03 09:21:19;;;;;;;;;11.80;10.20;;;;;24.20;89.57;100965.00;6097009;23;44916;-83
2022/06/03 09:23:54;;;;;;;;;13.00;12.40;;;;;24.25;90.01;100962.56;6127752;23;45247;-83
2022/06/03 09:26:28;;;;;;;;;16.00;12.60;;;;;24.27;89.75;100967.78;6271164;22;44865;-84
2022/06/03 09:28:57;;;;;;;;;13.00;9.80;;;;;24.11;90.14;100975.09;6306527;22;44834;-84
2022/06/03 09:31:24;;;;;;;;;15.20;12.20;;;;;24.16;91.03;100970.97;6306480;22;44753;-84
2022/06/03 09:33:50;;;;;;;;;10.60;10.60;;;;;24.28;91.79;100986.63;6306159;22;45232;-84
2022/06/03 09:36:19;;;;;;;;;11.80;10.00;;;;;24.52;92.17;101014.59;6308083;22;45296;-86
2022/06/03 09:39:00;;;;;;;;;10.20;9.40;;;;;24.67;92.42;101014.59;6311470;22;44688;-84
2022/06/03 09:41:31;;;;;;;;;9.80;9.00;;;;;24.74;93.50;101001.94;6311830;22;44698;-85
2022/06/03 09:43:58;;;;;;;;;9.60;8.60;;;;;24.91;93.39;101003.41;6311033;22;44925;-84
2022/06/03 09:46:31;;;;;;;;;10.60;10.60;;;;;25.05;92.60;101024.28;6305943;22;45320;-84
2022/06/03 09:48:57;;;;;;;;;10.80;10.00;;;;;25.09;92.22;101030.19;6306227;22;45222;-84
2022/06/03 09:54:21;;;;;;;;;10.00;8.60;;;;;25.37;91.34;101025.72;6307687;22;44920;-82
2022/06/03 09:56:50;;;;;;;;;10.40;9.00;;;;;25.48;90.16;101024.41;6307945;22;44569;-83
2022/06/03 09:59:19;;;;;;;;;12.20;12.20;;;;;25.53;88.65;101016.50;6304071;22;44844;-84
2022/06/03 10:01:46;;;;;;;;;16.60;13.40;;;;;25.49;89.34;101014.34;6307006;22;44812;-84
2022/06/03 10:04:12;;;;;;;;;21.40;18.60;;;;;25.49;89.98;101008.91;6283522;22;46714;-83
2022/06/03 10:06:43;;;;;;;;;12.40;11.40;;;;;25.55;90.59;100994.53;6310437;22;44649;-86
2022/06/03 10:17:53;;;;;;;;;13.60;12.20;;;;;26.35;89.38;100982.41;6309608;22;44740;-83
2022/06/03 10:20:19;;;;;;;;;14.20;12.20;;;;;26.46;90.38;100981.06;6313605;22;44820;-86
2022/06/03 10:22:45;;;;;;;;;12.00;11.25;;;;;26.58;91.16;100973.97;6313868;22;44843;-83
2022/06/03 10:25:11;;;;;;;;;10.50;10.50;;;;;26.64;92.57;100978.59;6313811;22;45019;-83
2022/06/03 10:27:37;;;;;;;;;14.80;12.60;;;;;26.70;91.22;100966.09;6312441;22;45306;-82
2022/06/03 10:30:05;;;;;;;;;13.75;12.50;;;;;26.77;91.70;100977.84;6315655;22;44769;-84
2022/06/03 10:32:33;;;;;;;;;12.60;11.80;;;;;26.80;93.15;100978.28;6312682;22;44875;-83
2022/06/03 10:35:16;;;;;;;;;14.80;12.20;;;;;27.01;91.78;100984.66;6311730;22;45304;-84
2022/06/03 10:37:53;;;;;;;;;12.40;12.40;;;;;27.29;90.36;100981.81;6314880;22;44729;-84
2022/06/03 10:40:20;;;;;;;;;10.40;10.40;;;;;27.45;89.65;100972.41;6312931;22;45409;-83
2022/06/03 10:42:48;;;;;;;;;12.40;11.20;;;;;27.59;89.05;100968.63;6310552;22;45274;-85
2022/06/03 10:45:14;;;;;;;;;14.00;14.00;;;;;27.83;90.55;100978.13;6289073;22;44983;-84
2022/06/03 10:47:46;;;;;;;;;11.00;10.20;;;;;28.00;88.50;100981.28;6323766;22;44770;-85
2022/06/03 10:50:11;;;;;;;;;12.80;12.80;;;;;28.22;87.51;100988.19;6284475;22;44694;-85
2022/06/03 11:01:27;;;;;;;;;9.20;8.20;;;;;28.30;87.00;100987.13;6306956;22;44660;-84
2022/06/03 11:03:53;;;;;;;;;10.20;9.60;;;;;28.38;86.73;100989.63;6307687;22;45363;-84
2022/06/03 11:06:22;;;;;;;;;9.40;9.40;;;;;28.31;87.12;100988.78;6310073;22;45152;-85
2022/06/03 11:08:59;;;;;;;;;13.20;10.00;;;;;28.35;88.29;100998.28;6313386;22;44701;-85
2022/06/03 11:11:38;;;;;;;;;10.00;10.00;;;;;28.45;88.58;101006.03;6308189;22;44761;-85
2022/06/03 11:14:27;;;;;;;;;10.20;10.20;;;;;28.51;87.60;101010.66;6283155;22;44721;-85
2022/06/03 11:17:21;;;;;;;;;12.00;11.00;;;;;28.33;87.60;101022.22;6290844;22;45046;-83
2022/06/03 11:19:50;;;;;;;;;10.20;9.60;;;;;28.05;88.94;101023.31;6280264;22;44742;-84
2022/06/03 11:22:21;;;;;;;;;13.40;8.80;;;;;27.84;90.18;101016.13;6313936;22;44706;-87
2022/06/03 11:24:53;;;;;;;;;10.40;10.20;;;;;27.73;91.27;101021.41;6314608;22;44691;-86
2022/06/03 11:27:24;;;;;;;;;11.60;11.60;;;;;27.58;92.10;101018.81;6312416;22;45407;-86
2022/06/03 11:29:54;;;;;;;;;9.00;9.00;;;;;27.49;92.35;101017.34;6287274;22;45337;-87
2022/06/03 11:32:24;;;;;;;;;10.60;9.20;;;;;27.27;93.34;101022.97;6317533;22;44646;-88
2022/06/03 11:35:46;;;;;;;;;10.20;9.40;;;;;26.97;95.79;101024.28;6318696;22;44745;-89
2022/06/03 11:38:19;;;;;;;;;12.00;11.00;;;;;26.78;96.92;101018.53;6165565;23;45183;-88
2022/06/03 11:40:54;;;;;;;;;13.00;11.60;;;;;26.60;98.49;101027.25;6189284;23;44605;-87
2022/06/03 11:43:31;;;;;;;;;10.20;8.60;;;;;26.35;100.00;101023.25;6184904;23;44660;-88
2022/06/03 11:46:04;;;;;;;;;8.60;8.60;;;;;26.05;100.00;101025.34;6160043;23;45198;-87
2022/06/03 11:48:37;;;;;;;;;9.80;9.80;;;;;25.80;100.00;101025.78;6163034;23;46602;-88
2022/06/03 11:51:07;;;;;;;;;12.60;11.40;;;;;25.64;100.00;101036.91;6185158;23;44760;-87
2022/06/03 11:53:37;;;;;;;;;10.80;10.80;;;;;25.57;100.00;101034.09;6159396;23;44792;-86
2022/06/03 11:56:05;;;;;;;;;12.00;11.00;;;;;25.38;100.00;101034.72;6157791;23;44854;-86
2022/06/03 11:58:44;;;;;;;;;8.60;8.60;;;;;25.16;100.00;101036.59;6182744;23;45367;-84
2022/06/03 12:01:17;;;;;;;;;12.60;9.60;;;;;24.79;100.00;101038.38;6158054;23;45380;-83
2022/06/03 12:03:55;;;;;;;;;9.00;8.60;;;;;24.61;100.00;101038.78;6187342;23;45378;-83
2022/06/03 12:06:40;;;;;;;;;8.80;8.80;;;;;24.42;100.00;101042.03;6183743;23;44798;-85
2022/06/03 12:09:45;;;;;;;;;9.40;8.60;;;;;24.18;100.00;101034.94;6181277;23;45204;-83
2022/06/03 12:15:30;;;;;;;;;9.00;8.80;;;;;23.93;100.00;101037.00;6211291;22;44749;-83
2022/06/03 12:17:57;;;;;;;;;15.40;8.80;;;;;23.85;100.00;101034.38;6209948;22;44833;-82
2022/06/03 12:20:31;;;;;;;;;9.40;8.20;;;;;23.72;100.00;101036.84;6210898;22;45239;-82
2022/06/03 12:23:17;;;;;;;;;1.20;0.00;;;;;23.54;100.00;101039.81;6212406;22;45169;-83
2022/06/03 12:26:09;;;;;;;;;11.40;8.60;;;;;23.35;100.00;101041.13;6212776;22;45410;-83
2022/06/03 12:28:45;;;;;;;;;9.60;8.20;;;;;23.20;100.00;101045.63;6218917;22;44826;-83
2022/06/03 12:31:19;;;;;;;;;9.20;8.20;;;;;23.02;100.00;101044.03;6216434;22;45330;-83
2022/06/03 12:34:09;;;;;;;;;9.00;9.00;;;;;22.84;100.00;101038.81;6213237;22;44785;-84
2022/06/03 12:36:52;;;;;;;;;9.40;9.40;;;;;22.67;100.00;101042.59;6213285;22;44690;-83
2022/06/03 12:39:29;;;;;;;;;11.60;10.80;;;;;22.51;100.00;101048.06;6212812;22;44848;-85
2022/06/03 12:41:59;;;;;;;;;11.00;10.00;;;;;22.43;100.00;101051.63;6191660;22;45321;-84
2022/06/03 12:44:49;;;;;;;;;11.20;10.80;;;;;22.37;100.00;101048.78;6191966;22;44722;-84
2022/06/03 12:47:18;;;;;;;;;12.80;10.80;;;;;22.25;100.00;101043.72;6303990;22;45186;-84
2022/06/03 12:49:43;;;;;;;;;12.60;10.40;;;;;22.13;100.00;101050.50;6308182;22;44813;-84
2022/06/03 12:52:12;;;;;;;;;13.00;9.50;;;;;22.05;100.00;101043.22;6311331;22;45136;-84
2022/06/03 12:54:47;;;;;;;;;8.40;8.40;;;;;21.98;100.00;101046.75;6308891;22;44803;-84
2022/06/03 12:57:26;;;;;;;;;10.00;8.00;;;;;21.96;100.00;101044.22;6307116;22;44692;-83
2022/06/03 12:59:59;;;;;;;;;7.80;7.80;;;;;21.97;100.00;101043.19;6314608;22;44814;-83
2022/06/03 13:02:29;;;;;;;;;9.00;9.00;;;;;21.99;100.00;101035.75;6315740;22;45320;-87
2022/06/03 13:04:55;;;;;;;;;9.20;6.60;;;;;22.02;100.00;101043.53;6309997;22;44579;-85
2022/06/03 13:07:26;;;;;;;;;9.00;8.75;;;;;22.06;100.00;101030.53;6307943;22;44686;-84
2022/06/03 13:10:12;;;;;;;;;10.20;9.20;;;;;22.11;100.00;101027.31;6307981;22;44776;-87
2022/06/03 13:12:38;;;;;;;;;11.60;10.40;;;;;22.13;100.00;101023.44;6308519;22;45360;-86
2022/06/03 13:15:22;;;;;;;;;8.75;8.75;;;;;22.16;100.00;101016.84;6278674;22;44761;-85
2022/06/03 13:18:18;;;;;;;;;11.80;10.20;;;;;22.15;100.00;101013.28;6278978;22;44808;-85
2022/06/03 13:20:48;;;;;;;;;8.60;8.60;;;;;22.12;100.00;101020.91;6282814;22;44790;-82